Time;durP1;ratioP1;P1;durP2;ratioP2;P2;SDS_P1;SDS_P2;PMS_P1;PMS_P2;Temp;Humidity;BMP_temperature;BMP_pressure;BME280_temperature;BME280_humidity;BME280_pressure;Samples;Min_cycle;Max_cycle;Signal;HPM_P1;HPM_P2
2022/04/12 00:01:34;;;;;;;14.50;8.95;;;6.40;78.70;;;;;;5069291;28;20463;-68
2022/04/12 00:04:01;;;;;;;13.88;8.68;;;6.40;78.60;;;;;;5050859;28;20033;-68
2022/04/12 00:06:26;;;;;;;15.48;8.02;;;6.40;78.30;;;;;;5071035;28;20127;-68
2022/04/12 00:08:52;;;;;;;15.45;8.00;;;6.40;78.20;;;;;;5106843;28;20695;-69
2022/04/12 00:11:18;;;;;;;12.63;8.38;;;6.40;78.30;;;;;;5089384;28;20046;-68
2022/04/12 00:13:43;;;;;;;15.05;8.35;;;6.40;78.30;;;;;;5074012;28;20036;-68
2022/04/12 00:16:09;;;;;;;16.35;9.27;;;6.30;78.50;;;;;;5110577;28;20040;-68
2022/04/12 00:21:19;;;;;;;17.27;9.30;;;6.20;78.60;;;;;;5092778;28;20086;-68
2022/04/12 00:23:46;;;;;;;16.25;9.15;;;6.20;78.40;;;;;;5074779;28;20167;-68
2022/04/12 00:26:12;;;;;;;14.80;8.75;;;6.20;78.20;;;;;;5082840;28;20058;-69
2022/04/12 00:28:40;;;;;;;14.45;8.52;;;6.20;78.30;;;;;;5091221;28;20423;-68
2022/04/12 00:31:06;;;;;;;23.25;10.38;;;6.10;78.50;;;;;;5091590;28;20344;-68
2022/04/12 00:33:32;;;;;;;12.38;8.70;;;6.10;78.70;;;;;;5092442;28;20035;-69
2022/04/12 00:36:00;;;;;;;15.30;8.73;;;6.10;78.80;;;;;;5090779;28;20355;-68
2022/04/12 00:38:27;;;;;;;17.90;9.52;;;6.10;79.10;;;;;;5087300;28;20036;-68
2022/04/12 00:40:56;;;;;;;14.90;9.18;;;6.10;79.30;;;;;;5088175;28;20463;-68
2022/04/12 00:43:27;;;;;;;14.77;9.30;;;6.00;79.30;;;;;;5088229;28;20035;-68
2022/04/12 00:45:53;;;;;;;16.23;8.52;;;5.90;80.00;;;;;;5089444;28;20051;-68
2022/04/12 00:48:18;;;;;;;17.30;9.60;;;5.80;79.80;;;;;;5091267;28;20035;-68
2022/04/12 00:50:46;;;;;;;16.27;9.52;;;5.80;80.00;;;;;;5091745;28;20488;-68
2022/04/12 00:53:12;;;;;;;16.88;10.23;;;5.80;80.10;;;;;;5092560;28;20040;-69
2022/04/12 00:55:38;;;;;;;18.13;9.93;;;5.80;80.20;;;;;;5089482;28;20039;-69
2022/04/12 00:58:06;;;;;;;16.88;9.85;;;5.70;80.50;;;;;;5089404;28;20487;-68
2022/04/12 01:00:31;;;;;;;17.48;9.85;;;5.60;80.60;;;;;;5075436;28;20126;-68
2022/04/12 01:02:57;;;;;;;17.75;9.70;;;5.60;81.00;;;;;;5090173;28;20390;-68
2022/04/12 01:05:23;;;;;;;17.05;10.00;;;5.50;81.00;;;;;;5073038;28;20390;-68
2022/04/12 01:07:49;;;;;;;18.40;10.75;;;5.50;81.10;;;;;;5088549;28;20512;-68
2022/04/12 01:10:15;;;;;;;14.23;9.65;;;5.40;81.30;;;;;;5072404;28;20089;-68
2022/04/12 01:12:42;;;;;;;17.23;10.38;;;5.40;81.60;;;;;;5091149;28;20075;-68
2022/04/12 01:15:12;;;;;;;21.08;10.80;;;5.40;81.70;;;;;;5089087;28;20051;-68
2022/04/12 01:17:37;;;;;;;20.25;11.27;;;5.30;81.80;;;;;;5092946;28;20036;-68
2022/04/12 01:20:06;;;;;;;22.33;10.98;;;5.20;81.90;;;;;;5091610;28;20036;-68
2022/04/12 01:22:36;;;;;;;17.38;10.13;;;5.10;81.90;;;;;;5088725;28;20047;-68
2022/04/12 01:25:03;;;;;;;17.73;10.18;;;5.00;82.40;;;;;;5090014;28;20043;-68
2022/04/12 01:27:29;;;;;;;18.08;10.50;;;5.00;82.30;;;;;;5091668;28;20043;-68
2022/04/12 01:29:55;;;;;;;19.88;10.95;;;5.00;82.50;;;;;;5092489;28;20035;-68
2022/04/12 01:32:21;;;;;;;17.80;10.20;;;5.00;83.60;;;;;;5095042;28;20036;-68
2022/04/12 01:34:47;;;;;;;17.80;9.75;;;5.00;82.70;;;;;;5075566;28;20051;-68
2022/04/12 01:37:12;;;;;;;17.75;10.20;;;5.00;82.40;;;;;;5073185;28;20075;-68
2022/04/12 01:39:38;;;;;;;16.08;9.65;;;5.00;82.20;;;;;;5064617;28;20063;-68
2022/04/12 01:42:04;;;;;;;17.25;9.65;;;5.00;82.10;;;;;;5091340;28;20043;-68
2022/04/12 01:44:29;;;;;;;18.38;10.13;;;5.00;82.20;;;;;;5092017;28;20081;-68
2022/04/12 01:46:55;;;;;;;18.58;10.27;;;5.00;82.30;;;;;;5092945;28;20036;-68
2022/04/12 01:49:20;;;;;;;19.05;10.68;;;5.00;82.50;;;;;;5105949;28;20409;-68
2022/04/12 01:51:48;;;;;;;17.30;9.93;;;4.90;82.50;;;;;;5085287;28;20043;-68
2022/04/12 01:54:13;;;;;;;18.30;10.65;;;4.90;82.30;;;;;;5088521;28;20784;-68
2022/04/12 01:56:39;;;;;;;15.82;10.35;;;4.90;82.50;;;;;;5072760;28;20036;-68
2022/04/12 01:59:04;;;;;;;20.27;10.77;;;4.90;82.80;;;;;;5086843;28;20043;-68
2022/04/12 02:01:30;;;;;;;17.58;9.93;;;5.00;82.60;;;;;;5088250;28;20114;-68
2022/04/12 02:03:56;;;;;;;19.33;10.18;;;4.90;82.30;;;;;;5088558;28;20119;-68
2022/04/12 02:06:22;;;;;;;15.20;9.60;;;4.90;82.40;;;;;;5089377;28;20063;-68
2022/04/12 02:08:47;;;;;;;19.92;9.38;;;4.90;82.50;;;;;;5089292;28;20126;-68
2022/04/12 02:11:13;;;;;;;19.27;10.23;;;4.80;82.20;;;;;;5073187;28;20507;-68
2022/04/12 02:13:39;;;;;;;17.20;10.32;;;4.90;82.40;;;;;;5107548;28;20092;-68
2022/04/12 02:16:04;;;;;;;18.17;10.20;;;4.80;82.30;;;;;;5089216;28;20069;-68
2022/04/12 02:18:30;;;;;;;16.05;10.13;;;4.70;82.50;;;;;;5092390;28;20036;-68
2022/04/12 02:20:56;;;;;;;16.27;9.85;;;4.70;82.60;;;;;;5073724;28;20043;-68
2022/04/12 02:23:21;;;;;;;16.45;10.52;;;4.60;82.90;;;;;;5088474;28;20045;-68
2022/04/12 02:25:47;;;;;;;16.77;9.98;;;4.50;83.10;;;;;;5089775;28;20100;-68
2022/04/12 02:28:14;;;;;;;17.70;10.43;;;4.50;83.30;;;;;;5073372;28;20043;-68
2022/04/12 02:30:40;;;;;;;16.05;9.80;;;4.40;83.20;;;;;;5088790;28;20351;-68
2022/04/12 02:33:05;;;;;;;18.33;10.68;;;4.40;83.60;;;;;;5089512;28;20066;-69
2022/04/12 02:35:31;;;;;;;16.05;9.85;;;4.40;83.80;;;;;;5096903;28;20042;-68
2022/04/12 02:37:57;;;;;;;16.63;9.75;;;4.40;83.80;;;;;;5086836;28;20044;-69
2022/04/12 02:40:22;;;;;;;18.42;9.75;;;4.50;83.50;;;;;;5085384;28;20536;-68
2022/04/12 02:42:48;;;;;;;16.23;10.32;;;4.50;83.50;;;;;;5089446;28;20050;-68
2022/04/12 02:45:13;;;;;;;17.75;9.85;;;4.50;83.20;;;;;;5090036;28;20048;-68
2022/04/12 02:47:39;;;;;;;18.35;10.07;;;4.50;83.10;;;;;;5087942;28;20044;-68
2022/04/12 02:50:05;;;;;;;16.98;10.23;;;4.60;83.20;;;;;;5087931;28;20382;-69
2022/04/12 02:52:31;;;;;;;18.83;10.30;;;4.50;82.90;;;;;;5089269;28;20132;-69
2022/04/12 02:54:56;;;;;;;17.83;10.25;;;4.50;82.80;;;;;;5072060;28;20067;-68
2022/04/12 02:57:22;;;;;;;20.13;10.90;;;4.50;82.90;;;;;;5095320;28;20469;-68
2022/04/12 02:59:47;;;;;;;18.90;10.77;;;4.50;82.90;;;;;;5069574;28;20101;-68
2022/04/12 03:02:13;;;;;;;17.85;10.80;;;4.50;83.00;;;;;;5087808;28;20089;-68
2022/04/12 03:04:40;;;;;;;21.23;10.65;;;4.50;82.90;;;;;;5085904;28;20084;-68
2022/04/12 03:07:06;;;;;;;17.10;10.30;;;4.50;83.00;;;;;;5088583;28;20077;-68
2022/04/12 03:09:32;;;;;;;20.15;10.85;;;4.60;83.00;;;;;;5104441;28;20036;-68
2022/04/12 03:11:57;;;;;;;18.17;10.35;;;4.60;82.70;;;;;;5075543;28;20036;-68
2022/04/12 03:14:23;;;;;;;17.85;10.23;;;4.60;82.80;;;;;;5089964;28;20031;-68
2022/04/12 03:16:48;;;;;;;16.40;9.55;;;4.60;82.90;;;;;;5094666;28;20573;-68
2022/04/12 03:19:14;;;;;;;16.60;10.13;;;4.60;82.80;;;;;;5090932;28;20035;-68
2022/04/12 03:21:42;;;;;;;19.45;9.88;;;4.50;82.90;;;;;;5089899;28;20478;-68
2022/04/12 03:24:08;;;;;;;17.30;10.77;;;4.50;83.00;;;;;;5086257;28;20078;-68
2022/04/12 03:26:34;;;;;;;18.45;10.60;;;4.50;83.00;;;;;;5090423;28;20093;-68
2022/04/12 03:29:00;;;;;;;19.17;10.05;;;4.40;83.30;;;;;;5089703;28;20122;-68
2022/04/12 03:31:26;;;;;;;16.63;10.43;;;4.40;83.50;;;;;;5091249;28;20127;-68
2022/04/12 03:33:51;;;;;;;19.27;10.45;;;4.30;83.70;;;;;;5087678;28;20044;-68
2022/04/12 03:36:17;;;;;;;19.85;10.68;;;4.20;84.00;;;;;;5086975;28;20043;-68
2022/04/12 03:38:48;;;;;;;21.67;10.25;;;4.20;84.00;;;;;;5093353;28;20047;-68
2022/04/12 03:41:22;;;;;;;18.67;10.45;;;4.20;84.10;;;;;;5076721;28;20039;-68
2022/04/12 03:43:48;;;;;;;17.90;10.20;;;4.20;84.40;;;;;;5094278;28;20110;-68
2022/04/12 03:46:14;;;;;;;16.30;10.32;;;4.10;84.20;;;;;;5101150;28;20527;-68
2022/04/12 03:48:40;;;;;;;17.45;9.75;;;4.10;84.40;;;;;;5092938;28;20085;-68
2022/04/12 03:51:06;;;;;;;17.98;10.48;;;4.10;84.60;;;;;;5094469;28;20084;-68
2022/04/12 03:53:32;;;;;;;16.52;10.70;;;4.10;84.60;;;;;;5090240;28;20176;-68
2022/04/12 03:55:57;;;;;;;18.55;11.20;;;4.10;84.70;;;;;;5092287;28;20038;-68
2022/04/12 03:58:23;;;;;;;18.70;10.88;;;4.10;84.90;;;;;;5107418;28;20651;-68
2022/04/12 04:00:49;;;;;;;17.35;10.48;;;4.10;85.30;;;;;;5077256;28;20142;-68
2022/04/12 04:03:15;;;;;;;19.15;11.05;;;4.10;85.40;;;;;;5094195;28;20035;-68
2022/04/12 04:05:41;;;;;;;18.88;11.18;;;4.10;85.20;;;;;;5074797;28;20035;-69
2022/04/12 04:08:07;;;;;;;18.58;11.10;;;4.10;85.10;;;;;;5072974;28;20104;-68
2022/04/12 04:10:33;;;;;;;17.52;10.88;;;4.10;85.40;;;;;;5090689;28;20459;-68
2022/04/12 04:12:58;;;;;;;22.55;10.98;;;4.10;85.40;;;;;;5075213;28;20096;-68
2022/04/12 04:15:24;;;;;;;18.15;11.02;;;4.00;85.60;;;;;;5093595;28;20031;-68
2022/04/12 04:17:49;;;;;;;18.30;10.98;;;4.00;86.00;;;;;;5090010;28;20464;-68
2022/04/12 04:20:17;;;;;;;19.95;11.07;;;4.00;85.80;;;;;;5091215;28;20415;-68
2022/04/12 04:22:43;;;;;;;20.80;11.57;;;4.00;85.80;;;;;;5091705;28;20155;-68
2022/04/12 04:25:10;;;;;;;21.92;11.50;;;4.00;85.90;;;;;;5091315;28;20081;-69
2022/04/12 04:27:36;;;;;;;19.65;11.23;;;3.90;86.10;;;;;;5089534;28;20127;-68
2022/04/12 04:30:07;;;;;;;19.20;11.52;;;3.90;86.20;;;;;;5092709;28;20173;-68
2022/04/12 04:32:34;;;;;;;21.48;11.77;;;3.90;86.40;;;;;;5087505;28;20973;-68
2022/04/12 04:34:59;;;;;;;19.77;11.45;;;4.00;87.00;;;;;;5090959;28;20132;-68
2022/04/12 04:37:25;;;;;;;18.23;10.63;;;4.00;86.50;;;;;;5089895;28;20039;-69
2022/04/12 04:39:51;;;;;;;18.75;11.57;;;4.10;87.00;;;;;;5086280;28;20177;-68
2022/04/12 04:42:17;;;;;;;20.90;11.15;;;4.00;85.90;;;;;;5089100;28;20158;-68
2022/04/12 04:44:43;;;;;;;18.55;10.68;;;4.10;86.20;;;;;;5109118;28;20040;-68
2022/04/12 04:47:08;;;;;;;21.25;11.23;;;4.10;86.40;;;;;;5105262;28;20126;-69
2022/04/12 04:49:34;;;;;;;19.50;11.50;;;4.10;86.30;;;;;;5084794;28;20372;-68
2022/04/12 04:51:59;;;;;;;18.48;10.98;;;4.00;86.20;;;;;;5087258;28;20448;-68
2022/04/12 04:54:25;;;;;;;15.65;10.60;;;4.00;86.40;;;;;;5088362;28;20426;-68
2022/04/12 04:56:51;;;;;;;22.33;11.48;;;4.00;86.30;;;;;;5089149;28;20035;-68
2022/04/12 04:59:17;;;;;;;20.52;11.38;;;4.00;86.30;;;;;;5068090;28;20047;-68
2022/04/12 05:01:42;;;;;;;20.42;11.38;;;4.00;86.30;;;;;;5092273;28;20036;-68
2022/04/12 05:04:08;;;;;;;23.42;11.35;;;4.00;86.40;;;;;;5073399;28;20480;-69
2022/04/12 05:06:33;;;;;;;18.38;11.45;;;4.00;87.10;;;;;;5091596;28;20050;-69
2022/04/12 05:08:59;;;;;;;20.55;11.77;;;4.00;86.30;;;;;;5091652;28;20054;-69
2022/04/12 05:11:24;;;;;;;22.55;11.95;;;4.00;86.40;;;;;;5074310;28;20078;-69
2022/04/12 05:13:50;;;;;;;23.13;12.52;;;4.10;86.50;;;;;;5083318;28;20384;-70
2022/04/12 05:16:16;;;;;;;19.00;11.20;;;4.10;86.50;;;;;;5091440;28;20082;-69
2022/04/12 05:18:41;;;;;;;17.55;10.95;;;4.10;86.50;;;;;;5077222;28;20024;-69
2022/04/12 05:21:07;;;;;;;21.00;11.75;;;4.00;86.50;;;;;;5091593;28;20313;-68
2022/04/12 05:23:32;;;;;;;22.20;11.60;;;4.00;86.50;;;;;;5077793;28;20105;-69
2022/04/12 05:25:59;;;;;;;21.85;11.55;;;4.00;86.60;;;;;;5084966;28;20891;-69
2022/04/12 05:28:43;;;;;;;20.20;11.80;;;4.00;86.80;;;;;;5106315;28;20102;-69
2022/04/12 05:31:09;;;;;;;20.73;11.45;;;4.10;86.70;;;;;;5087607;28;20032;-69
2022/04/12 05:33:34;;;;;;;20.67;11.68;;;4.10;86.50;;;;;;5087021;28;20039;-68
2022/04/12 05:36:00;;;;;;;22.80;11.63;;;4.10;86.30;;;;;;5080727;28;20032;-68
2022/04/12 05:38:25;;;;;;;22.65;11.65;;;4.20;86.40;;;;;;5063604;28;20024;-68
2022/04/12 05:40:51;;;;;;;20.98;12.35;;;4.30;86.50;;;;;;5056892;28;20089;-68
2022/04/12 05:43:16;;;;;;;22.40;11.70;;;4.30;86.40;;;;;;5074656;28;20450;-68
2022/04/12 05:45:42;;;;;;;20.42;12.77;;;4.50;86.40;;;;;;5080739;28;20514;-68
2022/04/12 05:48:07;;;;;;;20.80;12.13;;;4.70;86.40;;;;;;5087573;28;20114;-68
2022/04/12 05:50:33;;;;;;;23.42;12.25;;;4.90;86.20;;;;;;5079301;28;20043;-69
2022/04/12 05:52:59;;;;;;;21.98;12.43;;;5.20;86.20;;;;;;5102455;28;20424;-69
2022/04/12 05:55:26;;;;;;;22.92;11.90;;;5.40;85.60;;;;;;5068476;28;20427;-69
2022/04/12 05:58:11;;;;;;;23.23;11.90;;;5.70;85.10;;;;;;5103857;28;20089;-68
2022/04/12 06:00:36;;;;;;;19.58;11.60;;;5.90;84.50;;;;;;5070779;28;20027;-69
2022/04/12 06:03:05;;;;;;;21.58;11.38;;;6.10;83.90;;;;;;5069154;28;20048;-69
2022/04/12 06:05:32;;;;;;;23.17;11.65;;;6.20;83.30;;;;;;5076588;28;20040;-70
2022/04/12 06:07:59;;;;;;;21.02;11.80;;;6.30;83.00;;;;;;5085144;28;20059;-69
2022/04/12 06:10:25;;;;;;;19.00;11.75;;;6.50;82.90;;;;;;5080225;28;20076;-69
2022/04/12 06:12:51;;;;;;;18.08;11.32;;;6.50;82.30;;;;;;5084611;28;20039;-69
2022/04/12 06:15:18;;;;;;;20.48;10.85;;;6.60;82.70;;;;;;5082173;28;20414;-68
2022/04/12 06:17:44;;;;;;;24.17;11.73;;;6.70;82.00;;;;;;5065738;28;20123;-70
2022/04/12 06:20:11;;;;;;;22.48;11.75;;;6.70;81.70;;;;;;5079635;28;20367;-69
2022/04/12 06:22:38;;;;;;;17.90;10.50;;;6.70;81.70;;;;;;5083868;28;20056;-68
2022/04/12 06:25:05;;;;;;;19.48;11.68;;;6.80;81.10;;;;;;5065704;28;20391;-69
2022/04/12 06:27:36;;;;;;;16.42;10.75;;;6.80;80.80;;;;;;5089657;28;20032;-68
2022/04/12 06:30:08;;;;;;;19.42;11.10;;;6.90;80.60;;;;;;5070225;28;20078;-72
2022/04/12 06:32:35;;;;;;;18.23;11.07;;;7.00;79.80;;;;;;5089598;28;20123;-68
2022/04/12 06:35:01;;;;;;;20.58;10.82;;;7.10;80.20;;;;;;5090442;28;20137;-70
2022/04/12 06:37:28;;;;;;;16.83;10.52;;;7.20;79.70;;;;;;5082578;28;20036;-70
2022/04/12 06:39:56;;;;;;;16.25;10.07;;;7.30;79.70;;;;;;5082759;28;20055;-69
2022/04/12 06:42:21;;;;;;;17.65;10.98;;;7.40;79.10;;;;;;5097136;28;20043;-70
2022/04/12 06:44:47;;;;;;;17.27;11.15;;;7.50;78.90;;;;;;5097475;28;20054;-70
2022/04/12 06:47:15;;;;;;;20.05;11.20;;;7.60;78.80;;;;;;5091218;28;20378;-71
2022/04/12 06:49:43;;;;;;;17.75;11.15;;;7.70;78.60;;;;;;5074696;28;20073;-70
2022/04/12 06:52:09;;;;;;;18.38;10.52;;;7.80;78.30;;;;;;5089421;28;20114;-70
2022/04/12 06:54:34;;;;;;;20.02;10.90;;;7.90;78.10;;;;;;5076284;28;20415;-70
2022/04/12 06:57:00;;;;;;;20.45;11.07;;;8.00;78.20;;;;;;5076308;28;20481;-69
2022/04/12 06:59:26;;;;;;;25.60;11.40;;;8.10;78.30;;;;;;5085295;28;20038;-70
2022/04/12 07:01:51;;;;;;;18.63;10.95;;;8.10;78.20;;;;;;5060845;28;20047;-70
2022/04/12 07:04:17;;;;;;;14.55;9.77;;;8.20;77.10;;;;;;5076997;28;20521;-69
2022/04/12 07:06:42;;;;;;;18.73;10.07;;;8.20;76.70;;;;;;5080320;28;20067;-70
2022/04/12 07:09:10;;;;;;;16.73;10.60;;;8.30;76.50;;;;;;5082922;28;20119;-70
2022/04/12 07:11:35;;;;;;;17.38;10.27;;;8.30;76.00;;;;;;5104865;28;20071;-70
2022/04/12 07:14:01;;;;;;;20.25;10.65;;;8.30;75.60;;;;;;5082557;28;20495;-70
2022/04/12 07:16:27;;;;;;;18.20;10.38;;;8.30;75.80;;;;;;5075606;28;20135;-70
2022/04/12 07:18:52;;;;;;;16.52;10.48;;;8.30;75.90;;;;;;5058638;28;20617;-71
2022/04/12 07:21:21;;;;;;;15.68;9.13;;;8.40;76.10;;;;;;5074776;28;20424;-71
2022/04/12 07:23:49;;;;;;;17.27;10.18;;;8.40;76.40;;;;;;5084822;28;20048;-70
2022/04/12 07:26:15;;;;;;;15.35;10.85;;;8.50;76.20;;;;;;5094567;28;20339;-69
2022/04/12 07:28:40;;;;;;;15.52;10.60;;;8.80;76.30;;;;;;5095721;28;20035;-70
2022/04/12 07:31:06;;;;;;;15.50;10.40;;;9.20;76.60;;;;;;5078895;28;20530;-71
2022/04/12 07:33:31;;;;;;;16.83;10.52;;;9.50;76.10;;;;;;5096394;28;20032;-71
2022/04/12 07:35:57;;;;;;;16.83;10.48;;;9.80;75.70;;;;;;5093595;28;20042;-70
2022/04/12 07:38:22;;;;;;;20.13;9.48;;;10.20;74.50;;;;;;5094172;28;20040;-71
2022/04/12 07:40:49;;;;;;;14.75;8.85;;;10.50;74.20;;;;;;5091611;28;20459;-71
2022/04/12 07:43:15;;;;;;;19.75;9.60;;;10.80;71.20;;;;;;5098713;28;20044;-72
2022/04/12 07:45:40;;;;;;;11.82;9.23;;;11.20;70.60;;;;;;5089306;28;20032;-72
2022/04/12 07:48:06;;;;;;;17.48;9.23;;;11.50;68.30;;;;;;5081969;28;20143;-75
2022/04/12 07:50:32;;;;;;;14.70;9.73;;;11.70;67.40;;;;;;5085899;28;20031;-73
2022/04/12 07:52:58;;;;;;;15.50;9.38;;;12.00;66.20;;;;;;5091691;28;20032;-70
2022/04/12 07:55:23;;;;;;;14.00;9.35;;;12.30;65.90;;;;;;5091757;28;20126;-71
2022/04/12 07:57:49;;;;;;;15.05;9.60;;;12.60;66.40;;;;;;5076829;28;20122;-72
2022/04/12 08:00:15;;;;;;;15.70;9.27;;;12.80;63.30;;;;;;5077651;28;20043;-71
2022/04/12 08:02:40;;;;;;;14.95;9.15;;;13.00;62.60;;;;;;5076006;28;20139;-71
2022/04/12 08:05:06;;;;;;;11.68;7.78;;;13.10;61.40;;;;;;5092570;28;20122;-72
2022/04/12 08:07:32;;;;;;;13.27;8.77;;;13.40;61.50;;;;;;5086097;28;20039;-70
2022/04/12 08:09:57;;;;;;;12.50;8.85;;;13.40;60.40;;;;;;5089117;28;20027;-72
2022/04/12 08:12:23;;;;;;;12.57;8.77;;;13.50;59.90;;;;;;5068524;28;20047;-71
2022/04/12 08:14:48;;;;;;;14.98;9.27;;;13.70;60.10;;;;;;5085027;28;20036;-72
2022/04/12 08:17:14;;;;;;;14.90;8.75;;;14.00;61.00;;;;;;5068413;28;20047;-72
2022/04/12 08:19:39;;;;;;;13.30;9.63;;;13.90;59.40;;;;;;5091065;28;20371;-70
2022/04/12 08:22:05;;;;;;;13.30;8.60;;;13.80;57.80;;;;;;5101149;28;20036;-72
2022/04/12 08:24:31;;;;;;;16.13;8.95;;;13.70;57.70;;;;;;5081776;28;20032;-71
2022/04/12 08:26:56;;;;;;;12.65;8.70;;;13.50;58.80;;;;;;5091442;28;20562;-72
2022/04/12 08:29:22;;;;;;;12.30;8.35;;;13.50;58.80;;;;;;5093550;28;20126;-72
2022/04/12 08:31:47;;;;;;;14.20;8.43;;;13.60;59.60;;;;;;5075932;28;20119;-72
2022/04/12 08:34:13;;;;;;;14.85;8.02;;;13.60;58.80;;;;;;5091930;28;20147;-71
2022/04/12 08:36:38;;;;;;;11.50;8.50;;;13.50;57.10;;;;;;5091123;28;20410;-70
2022/04/12 08:39:04;;;;;;;13.57;8.15;;;13.40;56.90;;;;;;5091653;28;20524;-69
2022/04/12 08:41:31;;;;;;;12.35;8.38;;;13.70;57.00;;;;;;5085226;28;20032;-72
2022/04/12 08:43:58;;;;;;;11.90;7.43;;;13.60;56.20;;;;;;5092096;28;20035;-71
2022/04/12 08:46:25;;;;;;;14.27;9.02;;;13.90;56.20;;;;;;5074201;28;20441;-71
2022/04/12 08:48:56;;;;;;;14.30;8.68;;;14.60;54.70;;;;;;5090369;28;20039;-71
2022/04/12 08:51:22;;;;;;;17.90;8.95;;;15.10;53.90;;;;;;5090331;28;20034;-71
2022/04/12 08:53:48;;;;;;;11.63;8.20;;;15.30;53.00;;;;;;5060954;28;20043;-75
2022/04/12 08:56:14;;;;;;;13.82;8.48;;;15.60;52.50;;;;;;5091712;28;20031;-72
2022/04/12 08:58:40;;;;;;;12.18;8.75;;;16.10;52.10;;;;;;5089117;28;20051;-72
2022/04/12 09:01:06;;;;;;;11.65;8.65;;;16.30;51.20;;;;;;5093853;28;20036;-73
2022/04/12 09:03:31;;;;;;;12.85;8.40;;;16.50;51.80;;;;;;5090624;28;20035;-72
2022/04/12 09:05:57;;;;;;;15.45;8.93;;;16.80;50.90;;;;;;5091211;28;20027;-71
2022/04/12 09:08:29;;;;;;;14.35;9.07;;;16.80;50.00;;;;;;5088094;28;20070;-72
2022/04/12 09:11:00;;;;;;;14.70;8.65;;;17.10;51.10;;;;;;5089767;28;20040;-71
2022/04/12 09:13:26;;;;;;;11.73;8.40;;;17.50;49.10;;;;;;5090987;28;20066;-74
2022/04/12 09:15:52;;;;;;;12.18;8.55;;;17.40;50.60;;;;;;5076808;28;20150;-73
2022/04/12 09:18:41;;;;;;;11.93;8.32;;;17.80;48.60;;;;;;5092019;28;20115;-71
2022/04/12 09:21:16;;;;;;;12.43;8.38;;;17.40;47.50;;;;;;5062192;28;20041;-74
2022/04/12 09:23:46;;;;;;;11.40;8.63;;;17.70;48.30;;;;;;5085478;28;20134;-74
2022/04/12 09:26:22;;;;;;;11.20;8.40;;;17.50;48.50;;;;;;5109700;28;20062;-73
2022/04/12 09:28:50;;;;;;;10.57;7.60;;;17.60;47.30;;;;;;5087373;28;20032;-74
2022/04/12 09:31:17;;;;;;;13.02;8.60;;;17.70;49.20;;;;;;5090646;28;20045;-78
2022/04/12 09:33:44;;;;;;;10.85;7.53;;;17.40;49.60;;;;;;5089205;28;20032;-75
2022/04/12 09:36:10;;;;;;;10.90;7.60;;;16.80;49.60;;;;;;5090829;28;20516;-76
2022/04/12 09:38:38;;;;;;;12.57;8.70;;;16.50;50.20;;;;;;5085195;28;20097;-73
2022/04/12 09:41:23;;;;;;;14.13;8.85;;;16.00;51.30;;;;;;5102282;28;20039;-71
2022/04/12 09:44:08;;;;;;;11.82;8.68;;;15.90;51.50;;;;;;5086727;28;20046;-73
2022/04/12 09:46:35;;;;;;;12.93;8.48;;;15.90;50.90;;;;;;5090382;28;20073;-72
2022/04/12 09:49:02;;;;;;;12.52;8.40;;;15.80;51.30;;;;;;5089731;28;20046;-73
2022/04/12 09:51:27;;;;;;;13.27;8.38;;;15.70;51.90;;;;;;5074682;28;20055;-73
2022/04/12 09:53:53;;;;;;;14.55;8.93;;;15.80;51.70;;;;;;5089666;28;20486;-73
2022/04/12 09:56:22;;;;;;;13.20;8.80;;;15.70;52.10;;;;;;5066895;28;20054;-70
2022/04/12 09:58:56;;;;;;;14.20;8.77;;;15.70;51.50;;;;;;5072636;28;20065;-77
2022/04/12 10:01:23;;;;;;;13.50;8.10;;;15.70;50.80;;;;;;5090173;28;20158;-74
2022/04/12 10:03:56;;;;;;;14.88;8.68;;;15.90;51.90;;;;;;5085652;28;20137;-72
2022/04/12 10:06:24;;;;;;;13.13;7.65;;;16.10;52.40;;;;;;5077572;28;20125;-73
2022/04/12 10:09:04;;;;;;;12.32;8.32;;;16.20;50.80;;;;;;5086256;28;20525;-72
2022/04/12 10:11:30;;;;;;;12.10;8.43;;;16.40;49.90;;;;;;5087295;28;20051;-71
2022/04/12 10:13:56;;;;;;;15.52;8.18;;;16.50;50.30;;;;;;5089067;28;20039;-74
2022/04/12 10:16:23;;;;;;;12.13;8.32;;;17.00;50.40;;;;;;5089653;28;20039;-72
2022/04/12 10:18:49;;;;;;;11.32;8.10;;;17.30;49.60;;;;;;5063419;28;20059;-72
2022/04/12 10:21:15;;;;;;;12.30;7.65;;;18.10;48.00;;;;;;5089166;28;20093;-72
2022/04/12 10:23:45;;;;;;;12.20;9.23;;;18.70;46.70;;;;;;5071631;28;20031;-74
2022/04/12 10:26:11;;;;;;;15.10;8.53;;;18.50;45.70;;;;;;5073823;28;20114;-72
2022/04/12 10:28:38;;;;;;;13.45;8.32;;;18.50;45.20;;;;;;5090428;28;20032;-71
2022/04/12 10:31:13;;;;;;;13.57;8.65;;;18.80;46.20;;;;;;5072740;28;20147;-76
2022/04/12 10:33:39;;;;;;;12.00;7.53;;;18.80;46.30;;;;;;5088068;28;20150;-73
2022/04/12 10:36:06;;;;;;;12.18;8.73;;;18.60;47.50;;;;;;5073349;28;20118;-74
2022/04/12 10:38:43;;;;;;;12.23;8.60;;;18.30;47.90;;;;;;5071999;28;20055;-72
2022/04/12 10:41:26;;;;;;;13.00;8.50;;;18.00;47.50;;;;;;5084783;28;20036;-74
2022/04/12 10:43:57;;;;;;;11.02;7.50;;;17.60;48.50;;;;;;5107299;28;20055;-69
2022/04/12 10:46:22;;;;;;;13.90;8.10;;;17.50;50.10;;;;;;5079019;28;20085;-69
2022/04/12 10:48:55;;;;;;;11.90;7.95;;;17.50;50.00;;;;;;5095734;28;20035;-70
2022/04/12 10:51:59;;;;;;;12.80;8.45;;;17.50;51.30;;;;;;5090266;28;20137;-71
2022/04/12 10:54:34;;;;;;;12.85;7.85;;;17.50;51.20;;;;;;5077795;28;20063;-74
2022/04/12 10:57:18;;;;;;;11.88;7.95;;;17.40;49.10;;;;;;5093456;28;20146;-72
2022/04/12 11:00:03;;;;;;;12.00;8.48;;;17.30;49.30;;;;;;5076171;28;20146;-71
2022/04/12 11:02:35;;;;;;;14.73;8.15;;;17.30;51.20;;;;;;5068350;28;20040;-71
2022/04/12 11:05:01;;;;;;;13.25;8.25;;;17.30;50.10;;;;;;5085267;28;20027;-71
2022/04/12 11:07:32;;;;;;;11.45;7.97;;;17.40;50.80;;;;;;5080588;28;20067;-73
2022/04/12 11:10:13;;;;;;;13.90;9.13;;;17.50;50.90;;;;;;5055387;28;20063;-73
2022/04/12 11:12:43;;;;;;;12.50;9.13;;;17.50;49.30;;;;;;5071036;28;20105;-72
2022/04/12 11:15:22;;;;;;;11.18;7.85;;;17.30;49.70;;;;;;5075343;28;20105;-71
2022/04/12 11:17:47;;;;;;;10.02;8.13;;;17.30;50.80;;;;;;5069673;28;20067;-72
2022/04/12 11:20:21;;;;;;;14.60;8.18;;;17.50;51.00;;;;;;5072723;28;20164;-71
2022/04/12 11:22:56;;;;;;;13.50;8.10;;;17.60;50.40;;;;;;5051687;28;20395;-70
2022/04/12 11:25:22;;;;;;;13.00;8.60;;;17.70;49.50;;;;;;5073053;28;20382;-70
2022/04/12 11:27:56;;;;;;;10.80;7.72;;;17.70;49.80;;;;;;5073194;28;20036;-72
2022/04/12 11:30:23;;;;;;;13.27;8.75;;;17.50;48.90;;;;;;5074067;28;20514;-70
2022/04/12 11:32:48;;;;;;;14.63;8.60;;;17.50;49.00;;;;;;5074318;28;20100;-72
2022/04/12 11:35:15;;;;;;;12.85;9.05;;;17.60;49.10;;;;;;5074587;28;20045;-72
2022/04/12 11:37:41;;;;;;;13.50;8.30;;;17.80;49.20;;;;;;5073267;28;20044;-70
2022/04/12 11:40:07;;;;;;;11.82;8.48;;;17.90;49.30;;;;;;5073763;28;20032;-71
2022/04/12 11:42:33;;;;;;;14.23;7.90;;;18.00;49.40;;;;;;5056513;28;20614;-71
2022/04/12 11:45:00;;;;;;;12.73;8.68;;;18.10;49.80;;;;;;5074776;28;20253;-70
2022/04/12 11:47:33;;;;;;;12.15;8.70;;;18.20;48.80;;;;;;5073510;28;20074;-70
2022/04/12 11:50:00;;;;;;;11.65;8.40;;;18.10;48.50;;;;;;5073627;28;20124;-71
2022/04/12 11:52:27;;;;;;;14.50;8.68;;;18.20;49.20;;;;;;5072277;28;20109;-70
2022/04/12 11:54:52;;;;;;;17.48;9.10;;;18.20;49.60;;;;;;5072270;28;20576;-69
2022/04/12 11:57:21;;;;;;;15.45;8.73;;;18.20;49.50;;;;;;5051647;28;20095;-74
2022/04/12 12:00:00;;;;;;;12.20;8.15;;;18.30;49.10;;;;;;5070836;28;20040;-74
2022/04/12 12:02:31;;;;;;;17.95;8.98;;;18.40;47.80;;;;;;5044107;28;20610;-70
2022/04/12 12:05:15;;;;;;;14.82;8.68;;;18.50;47.40;;;;;;5056325;28;20037;-73
2022/04/12 12:07:40;;;;;;;13.15;8.05;;;18.60;47.60;;;;;;5074577;28;20055;-70
2022/04/12 12:10:14;;;;;;;12.82;8.32;;;18.60;46.60;;;;;;5075234;28;20044;-75
2022/04/12 12:12:44;;;;;;;13.23;8.48;;;18.70;47.00;;;;;;5104088;28;20036;-73
2022/04/12 12:15:24;;;;;;;11.98;8.32;;;18.80;47.20;;;;;;5072357;28;20174;-70
2022/04/12 12:17:58;;;;;;;15.98;8.25;;;18.90;48.00;;;;;;5070804;28;20059;-72
2022/04/12 12:20:26;;;;;;;13.07;8.07;;;18.70;47.20;;;;;;5071517;28;20847;-72
2022/04/12 12:22:55;;;;;;;14.02;7.90;;;18.80;47.00;;;;;;5069185;28;20055;-74
2022/04/12 12:25:40;;;;;;;14.32;8.73;;;18.80;46.50;;;;;;5087664;28;20043;-72
2022/04/12 12:28:15;;;;;;;12.05;8.55;;;19.30;48.10;;;;;;5068406;28;20517;-74
2022/04/12 12:30:46;;;;;;;14.23;8.68;;;19.50;46.60;;;;;;5070876;28;20036;-71
2022/04/12 12:33:12;;;;;;;13.93;8.60;;;19.70;46.70;;;;;;5075012;28;20095;-72
2022/04/12 12:35:41;;;;;;;14.48;9.80;;;19.90;46.80;;;;;;5072280;28;20040;-69
2022/04/12 12:38:11;;;;;;;15.23;9.05;;;20.00;46.00;;;;;;5069927;28;20490;-73
2022/04/12 12:40:38;;;;;;;14.32;9.05;;;20.00;45.20;;;;;;5085310;28;20033;-70
2022/04/12 12:43:06;;;;;;;18.88;9.50;;;19.70;45.00;;;;;;5069128;28;20544;-70